EDT,Max TemperatureF,Mean TemperatureF,Min TemperatureF,Max Dew PointF,MeanDew PointF,Min DewpointF,Max Humidity, Mean Humidity, Min Humidity, Max Sea Level PressureIn, Mean Sea Level PressureIn, Min Sea Level PressureIn, Max VisibilityMiles, Mean VisibilityMiles, Min VisibilityMiles, Max Wind SpeedMPH, Mean Wind SpeedMPH, Max Gust SpeedMPH,PrecipitationIn, CloudCover, Events, WindDirDegrees
2013-10-1,73,56,38,54,47,36,93,75,44,30.03,29.97,29.91,10,7,0,13,1,17,0.00,3,Fog,326
2013-10-2,73,60,48,58,48,41,92,72,40,29.98,29.90,29.85,10,6,0,16,2,25,0.00,4,Fog,268
2013-10-3,69,56,44,46,42,38,88,60,32,30.13,30.07,29.98,10,10,10,8,3,,0.00,0,,292
2013-10-4,64,52,41,49,44,38,91,71,50,30.14,30.11,30.07,10,10,7,5,1,,0.00,4,,311
2013-10-5,63,56,49,46,40,29,83,59,29,30.19,30.14,30.11,10,10,10,8,1,,0.00,6,Rain,341
2013-10-6,55,50,44,46,40,34,90,73,52,30.21,30.17,30.11,10,9,4,8,3,,0.00,7,Rain,172
2013-10-7,68,58,49,60,52,46,90,85,71,30.10,29.90,29.65,10,10,2,20,6,34,0.00,7,Rain,171
2013-10-8,56,45,35,46,36,31,88,63,39,30.41,30.20,29.90,10,10,10,14,5,21,0.00,3,Rain,287
2013-10-9,62,46,30,38,33,28,95,69,28,30.49,30.43,30.37,10,9,0,8,1,,0.00,0,Fog,162
2013-10-10,61,47,33,42,37,32,94,71,35,30.37,30.30,30.22,10,10,2,4,0,,0.00,0,,162
2013-10-11,71,53,35,42,37,32,92,62,23,30.22,30.19,30.15,10,10,7,5,1,,0.00,0,,195
2013-10-12,70,54,39,50,44,36,91,71,43,30.40,30.31,30.22,10,10,7,9,2,10,0.00,1,,180
2013-10-13,63,55,46,47,45,43,87,72,50,30.44,30.40,30.36,10,10,10,10,5,16,0.00,4,,176
2013-10-14,51,48,46,49,46,42,92,88,84,30.37,30.32,30.27,10,6,0,7,2,,0.00,8,Fog-Rain,162
2013-10-15,64,56,47,56,49,45,92,82,59,30.30,30.25,30.16,10,6,0,9,2,,0.00,7,Fog-Rain,164
2013-10-16,63,56,50,50,47,44,88,72,53,30.16,30.03,29.86,10,10,10,16,5,24,0.00,5,Rain,168
2013-10-17,63,55,47,53,46,42,91,73,48,29.86,29.81,29.73,10,9,0,10,4,18,0.00,5,Fog-Rain,236
2013-10-18,57,52,46,49,42,31,92,72,47,29.88,29.73,29.61,10,8,0,15,5,23,0.00,6,Fog-Rain,261
2013-10-19,60,48,37,40,37,32,86,62,45,29.93,29.85,29.70,10,10,10,13,3,21,0.00,4,Rain,164
2013-10-20,54,48,41,45,34,24,88,60,32,29.98,29.78,29.64,10,10,7,21,7,33,0.00,5,Rain,241
2013-10-21,59,46,32,38,35,30,94,65,43,30.07,30.00,29.91,10,10,2,12,4,16,0.00,3,,176
2013-10-22,54,44,33,45,38,30,90,71,48,29.91,29.78,29.68,10,10,4,17,8,23,0.00,5,Rain,200
2013-10-23,49,38,28,34,28,23,94,72,37,29.76,29.68,29.60,10,9,0,10,1,,0.00,4,Fog,273
2013-10-24,40,34,28,33,28,23,93,76,53,29.82,29.70,29.64,10,10,1,13,4,17,0.00,5,Rain-Snow,260
2013-10-25,40,36,33,32,27,23,87,71,52,30.09,29.99,29.83,10,10,7,17,7,25,0.00,7,Rain,273
2013-10-26,42,35,28,32,28,23,86,74,48,30.09,29.94,29.80,10,10,3,16,4,25,0.00,6,Rain-Snow,180
2013-10-27,45,39,34,35,30,26,83,71,53,29.99,29.84,29.74,10,10,5,16,5,30,0.00,7,Rain,226
2013-10-28,42,35,28,35,26,17,88,71,48,30.35,30.12,29.99,10,10,5,16,4,23,0.00,5,Rain-Snow,276
2013-10-29,41,32,22,24,18,10,90,61,32,30.43,30.37,30.33,10,10,10,9,2,,0.00,0,,279
2013-10-30,40,32,23,28,23,18,86,73,58,30.32,30.23,30.18,10,10,10,8,1,,0.00,6,,249
2013-10-31,55,42,30,52,37,27,92,87,73,30.22,30.00,29.68,10,7,1,13,3,18,0.00,7,Rain,171